createdAt,value
2022-08-26T00:01:53.759Z,53.00
2022-08-26T00:04:21.460Z,66.50
2022-08-26T00:06:48.413Z,99.90
2022-08-26T00:09:15.882Z,99.90
2022-08-26T00:11:44.355Z,85.70
2022-08-26T00:14:13.802Z,99.90
2022-08-26T00:16:47.762Z,99.90
2022-08-26T00:19:17.050Z,99.90
2022-08-26T00:21:44.045Z,99.90
2022-08-26T00:24:10.761Z,99.90
2022-08-26T00:26:37.504Z,99.90
2022-08-26T00:29:04.453Z,99.90
2022-08-26T00:31:32.489Z,99.90
2022-08-26T00:33:59.552Z,99.90
2022-08-26T00:36:30.009Z,99.90
2022-08-26T00:38:57.552Z,99.90
2022-08-26T00:41:24.339Z,99.90
2022-08-26T00:43:51.480Z,99.90
2022-08-26T00:46:29.231Z,99.90
2022-08-26T00:49:12.074Z,99.90
2022-08-26T00:51:52.320Z,99.90
2022-08-26T00:54:23.965Z,99.90
2022-08-26T00:57:15.819Z,1.00
2022-08-26T00:59:52.450Z,1.00
2022-08-26T01:02:20.959Z,1.00
2022-08-26T01:04:54.318Z,1.00
2022-08-26T01:07:24.480Z,1.00
2022-08-26T01:09:51.348Z,1.00
2022-08-26T01:12:22.053Z,1.00
2022-08-26T01:14:50.062Z,1.00
2022-08-26T01:17:17.304Z,1.00
2022-08-26T01:19:58.656Z,1.00
2022-08-26T01:22:55.399Z,1.00
2022-08-26T01:25:25.093Z,1.00
2022-08-26T01:27:53.106Z,1.00
2022-08-26T01:30:21.097Z,1.00
2022-08-26T01:32:49.994Z,1.00
2022-08-26T01:35:16.816Z,1.00
2022-08-26T01:37:48.090Z,1.00
2022-08-26T01:40:20.773Z,1.00
2022-08-26T01:42:49.151Z,1.00
2022-08-26T01:45:29.057Z,1.00
2022-08-26T01:47:59.829Z,1.00
2022-08-26T01:50:31.642Z,1.00
2022-08-26T01:53:03.078Z,1.00
2022-08-26T01:55:33.499Z,1.00
2022-08-26T01:58:06.494Z,1.00
2022-08-26T02:00:34.941Z,1.00
2022-08-26T02:03:17.039Z,1.00
2022-08-26T02:05:53.297Z,1.00
2022-08-26T02:08:35.443Z,1.00
2022-08-26T02:11:02.294Z,1.00
2022-08-26T02:13:31.681Z,1.00
2022-08-26T02:16:01.065Z,1.00
2022-08-26T02:18:30.403Z,1.00
2022-08-26T02:20:57.342Z,1.00
2022-08-26T02:23:24.637Z,9.10
2022-08-26T02:26:02.842Z,1.00
2022-08-26T02:28:34.413Z,1.00
2022-08-26T02:31:02.557Z,1.00
2022-08-26T02:33:29.972Z,1.00
2022-08-26T02:35:57.769Z,22.00
2022-08-26T02:38:24.537Z,38.80
2022-08-26T02:40:51.314Z,68.40
2022-08-26T02:43:18.124Z,76.10
2022-08-26T02:45:45.875Z,65.60
2022-08-26T02:48:16.954Z,29.70
2022-08-26T02:50:45.742Z,30.00
2022-08-26T02:53:12.595Z,66.30
2022-08-26T02:55:42.319Z,36.90
2022-08-26T02:58:09.821Z,27.70
2022-08-26T03:00:38.425Z,26.90
2022-08-26T03:03:06.393Z,59.80
2022-08-26T03:05:33.618Z,49.30
2022-08-26T03:08:01.778Z,23.90
2022-08-26T03:10:31.471Z,32.50
2022-08-26T03:13:00.576Z,85.50
2022-08-26T03:15:32.452Z,99.90
2022-08-26T03:17:59.510Z,99.90
2022-08-26T03:20:26.250Z,99.90
2022-08-26T03:22:53.390Z,99.90
2022-08-26T03:25:23.202Z,99.90
2022-08-26T03:27:50.568Z,99.90
2022-08-26T03:30:36.452Z,99.90
2022-08-26T03:33:03.287Z,99.90
2022-08-26T03:35:32.024Z,99.90
2022-08-26T03:37:59.205Z,99.90
2022-08-26T03:40:29.087Z,99.90
2022-08-26T03:42:56.032Z,99.90
2022-08-26T03:45:22.913Z,99.90
2022-08-26T03:47:49.692Z,99.90
2022-08-26T03:50:22.524Z,99.90
2022-08-26T03:52:51.779Z,99.90
2022-08-26T03:55:20.207Z,99.90
2022-08-26T03:57:51.046Z,99.90
2022-08-26T04:00:18.759Z,99.90
2022-08-26T04:02:48.710Z,99.90
2022-08-26T04:05:17.837Z,99.90
2022-08-26T04:07:45.927Z,99.90
2022-08-26T04:10:15.665Z,99.90
2022-08-26T04:12:47.062Z,99.90
2022-08-26T04:15:17.778Z,99.90
2022-08-26T04:17:44.828Z,99.90
2022-08-26T04:20:16.255Z,99.90
2022-08-26T04:22:43.262Z,99.90
2022-08-26T04:25:10.713Z,99.90
2022-08-26T04:27:37.550Z,99.90
2022-08-26T04:30:05.645Z,99.90
2022-08-26T04:32:35.632Z,99.90
2022-08-26T04:35:04.566Z,99.90
2022-08-26T04:37:31.487Z,99.90
2022-08-26T04:39:59.522Z,99.90
2022-08-26T04:42:26.355Z,99.90
2022-08-26T04:44:53.307Z,99.90
2022-08-26T04:47:20.017Z,99.90
2022-08-26T04:49:46.785Z,99.90
2022-08-26T04:52:13.537Z,99.90
2022-08-26T04:54:42.024Z,99.90
2022-08-26T04:57:09.152Z,99.90
2022-08-26T04:59:39.170Z,99.90
2022-08-26T05:02:07.091Z,99.90
2022-08-26T05:04:34.514Z,99.90
2022-08-26T05:07:02.650Z,99.90
2022-08-26T05:09:29.937Z,99.90
2022-08-26T05:11:57.305Z,99.90
2022-08-26T05:14:24.230Z,99.90
2022-08-26T05:16:51.201Z,99.90
2022-08-26T05:19:19.239Z,99.90
2022-08-26T05:21:47.863Z,99.90
2022-08-26T05:24:15.222Z,99.90
2022-08-26T05:26:41.942Z,99.90
2022-08-26T05:29:11.629Z,22.30
2022-08-26T05:31:38.479Z,6.30
2022-08-26T05:34:06.003Z,1.00
2022-08-26T05:36:35.738Z,1.00
2022-08-26T05:39:05.272Z,1.00
2022-08-26T05:41:36.769Z,1.00
2022-08-26T05:44:09.375Z,1.00
2022-08-26T05:46:37.915Z,1.00
2022-08-26T05:49:06.070Z,1.00
2022-08-26T05:51:40.939Z,1.00
2022-08-26T05:54:07.843Z,1.00
2022-08-26T05:56:37.763Z,1.00
2022-08-26T05:59:04.779Z,1.00
2022-08-26T06:01:32.494Z,1.00
2022-08-26T06:04:03.074Z,1.00
2022-08-26T06:06:32.347Z,1.00
2022-08-26T06:09:00.939Z,47.70
2022-08-26T06:11:30.600Z,99.90
2022-08-26T06:14:03.751Z,99.90
2022-08-26T06:16:34.638Z,82.60
2022-08-26T06:19:03.131Z,14.00
2022-08-26T06:21:35.611Z,99.90
2022-08-26T06:24:27.210Z,99.90
2022-08-26T06:26:56.942Z,99.90
2022-08-26T06:29:25.883Z,99.90
2022-08-26T06:31:54.585Z,99.90
2022-08-26T06:34:23.649Z,50.50
2022-08-26T06:36:58.682Z,6.30
2022-08-26T06:39:25.728Z,10.50
2022-08-26T06:41:53.029Z,1.00
2022-08-26T06:44:21.008Z,43.40
2022-08-26T06:46:50.576Z,4.40
2022-08-26T06:49:18.384Z,1.00
2022-08-26T06:51:54.268Z,92.70
2022-08-26T06:54:21.239Z,11.20
2022-08-26T06:56:48.045Z,1.00
2022-08-26T06:59:16.042Z,1.70
2022-08-26T07:01:44.919Z,1.00
2022-08-26T07:04:14.585Z,1.00
2022-08-26T07:06:48.805Z,25.70
2022-08-26T07:09:16.918Z,1.00
2022-08-26T07:11:44.961Z,1.00
2022-08-26T07:14:11.998Z,1.00
2022-08-26T07:16:39.886Z,1.00
2022-08-26T07:19:10.643Z,1.00
2022-08-26T07:21:40.399Z,1.00
2022-08-26T07:24:07.949Z,1.00
2022-08-26T07:26:35.174Z,1.00
2022-08-26T07:29:03.015Z,1.00
2022-08-26T07:31:39.117Z,1.00
2022-08-26T07:34:07.714Z,1.00
2022-08-26T07:36:35.001Z,1.00
2022-08-26T07:39:01.982Z,1.00
2022-08-26T07:43:56.969Z,1.00
2022-08-26T07:46:26.946Z,1.00
2022-08-26T07:48:54.534Z,1.00
2022-08-26T07:51:22.832Z,1.00
2022-08-26T07:53:52.738Z,1.00
2022-08-26T07:56:21.035Z,1.00
2022-08-26T07:58:51.355Z,1.00
2022-08-26T08:01:19.911Z,1.00
2022-08-26T08:03:46.956Z,1.00
2022-08-26T08:06:18.745Z,1.00
2022-08-26T08:08:46.318Z,1.00
2022-08-26T08:11:14.541Z,1.00
2022-08-26T08:13:41.299Z,1.00
2022-08-26T08:16:12.534Z,99.90
2022-08-26T08:18:40.467Z,1.00
2022-08-26T08:21:23.650Z,99.90
2022-08-26T08:23:55.581Z,99.90
2022-08-26T08:26:24.421Z,99.90
2022-08-26T08:28:54.408Z,99.90
2022-08-26T08:31:54.418Z,99.90
2022-08-26T08:34:12.963Z,99.90
2022-08-26T08:36:39.796Z,1.00
2022-08-26T08:39:07.017Z,99.90
2022-08-26T08:41:44.894Z,1.00
2022-08-26T08:44:20.973Z,1.00
2022-08-26T08:46:56.050Z,1.00
2022-08-26T08:49:25.877Z,99.90
2022-08-26T08:52:00.944Z,1.00
2022-08-26T08:54:30.087Z,1.00
2022-08-26T08:57:03.070Z,1.00
2022-08-26T08:59:35.319Z,1.00
2022-08-26T09:02:22.497Z,1.00
2022-08-26T09:05:17.360Z,99.90
2022-08-26T09:07:58.581Z,99.90
2022-08-26T09:10:34.227Z,99.90
2022-08-26T09:13:08.035Z,1.00
2022-08-26T09:15:58.757Z,99.90
2022-08-26T09:18:38.534Z,1.00
2022-08-26T09:21:09.166Z,99.90
2022-08-26T09:23:40.284Z,99.90
2022-08-26T09:26:16.603Z,99.90
2022-08-26T09:28:53.920Z,1.00
2022-08-26T09:31:34.275Z,1.00
2022-08-26T09:34:23.691Z,1.00
2022-08-26T09:36:51.953Z,1.00
2022-08-26T09:39:34.607Z,1.00
2022-08-26T09:42:20.606Z,1.00
2022-08-26T09:44:56.735Z,99.90
2022-08-26T09:47:30.468Z,99.90
2022-08-26T09:50:02.083Z,1.00
2022-08-26T09:52:28.994Z,1.00
2022-08-26T09:55:12.689Z,1.00
2022-08-26T09:57:54.167Z,1.00
2022-08-26T10:00:27.174Z,99.90
2022-08-26T10:02:57.963Z,99.90
2022-08-26T10:05:45.070Z,99.90
2022-08-26T10:08:27.383Z,99.90
2022-08-26T10:10:56.375Z,1.00
2022-08-26T10:13:35.578Z,1.00
2022-08-26T10:16:16.229Z,1.00
2022-08-26T10:19:00.201Z,1.00
2022-08-26T10:21:35.413Z,1.00
2022-08-26T10:24:03.548Z,1.00
2022-08-26T10:27:07.876Z,1.00
2022-08-26T10:29:41.257Z,1.00
2022-08-26T10:32:16.570Z,1.00
2022-08-26T10:34:43.865Z,1.00
2022-08-26T10:37:18.461Z,1.00
2022-08-26T10:40:27.501Z,1.00
2022-08-26T10:43:11.023Z,1.00
2022-08-26T10:45:44.192Z,1.00
2022-08-26T10:48:21.814Z,1.00
2022-08-26T10:50:49.600Z,1.00
2022-08-26T10:53:44.324Z,1.00
2022-08-26T10:56:41.240Z,99.90
2022-08-26T10:59:43.813Z,1.00
2022-08-26T11:02:40.584Z,1.00
2022-08-26T11:05:23.493Z,1.00
2022-08-26T11:08:04.928Z,1.00
2022-08-26T11:10:50.635Z,1.00
2022-08-26T11:13:18.025Z,1.00
2022-08-26T11:15:55.169Z,1.00
2022-08-26T11:18:43.022Z,1.00
2022-08-26T11:21:41.174Z,1.00
2022-08-26T11:24:08.290Z,99.90
2022-08-26T11:26:55.758Z,99.90
2022-08-26T11:30:01.143Z,99.90
2022-08-26T11:32:34.081Z,99.90
2022-08-26T11:35:13.374Z,1.00
2022-08-26T11:37:40.606Z,99.90
2022-08-26T11:40:12.494Z,1.00
2022-08-26T11:42:54.350Z,1.00
2022-08-26T11:45:43.422Z,1.00
2022-08-26T11:48:18.860Z,1.00
2022-08-26T11:50:57.488Z,1.00
2022-08-26T11:53:26.161Z,1.00
2022-08-26T11:55:55.749Z,1.00
2022-08-26T11:58:24.560Z,1.00
2022-08-26T12:00:58.031Z,99.90
2022-08-26T12:03:37.588Z,1.00
2022-08-26T12:06:15.328Z,1.00
2022-08-26T12:08:44.901Z,1.00
2022-08-26T12:11:20.948Z,1.00
2022-08-26T12:13:56.318Z,1.00
2022-08-26T12:16:27.863Z,1.00
2022-08-26T12:18:55.397Z,1.00
2022-08-26T12:21:29.312Z,1.00
2022-08-26T12:24:03.157Z,1.00
2022-08-26T12:26:35.973Z,1.00
2022-08-26T12:29:12.704Z,1.00
2022-08-26T12:32:13.185Z,1.00
2022-08-26T12:34:45.118Z,14.30
2022-08-26T12:37:14.072Z,1.00
2022-08-26T12:39:44.494Z,16.80
2022-08-26T12:42:17.045Z,1.00
2022-08-26T12:44:53.126Z,1.00
2022-08-26T12:47:41.870Z,1.00
2022-08-26T12:50:21.224Z,1.00
2022-08-26T12:53:08.997Z,1.00
2022-08-26T12:55:43.914Z,1.00
2022-08-26T12:58:16.753Z,1.00
2022-08-26T13:00:51.856Z,1.00
2022-08-26T13:03:32.547Z,1.00
2022-08-26T13:06:29.951Z,1.00
2022-08-26T13:09:02.744Z,1.00
2022-08-26T13:11:39.904Z,1.00
2022-08-26T13:14:23.633Z,1.00
2022-08-26T13:16:51.360Z,1.00
2022-08-26T13:19:24.112Z,1.00
2022-08-26T13:21:53.926Z,1.00
2022-08-26T13:24:26.048Z,1.00
2022-08-26T13:26:52.904Z,1.00
2022-08-26T13:29:20.294Z,1.00
2022-08-26T13:31:50.096Z,91.90
2022-08-26T13:34:20.113Z,1.00
2022-08-26T13:36:48.103Z,1.00
2022-08-26T13:39:15.026Z,1.00
2022-08-26T13:41:43.190Z,1.00
2022-08-26T13:44:11.036Z,1.00
2022-08-26T13:46:38.200Z,1.00
2022-08-26T13:49:05.468Z,1.00
2022-08-26T13:51:32.990Z,1.00
2022-08-26T13:54:00.558Z,1.00
2022-08-26T13:56:29.566Z,1.00
2022-08-26T13:58:57.242Z,1.00
2022-08-26T14:01:24.481Z,1.00
2022-08-26T14:03:51.485Z,1.00
2022-08-26T14:06:18.880Z,1.00
2022-08-26T14:08:45.901Z,1.00
2022-08-26T14:11:13.006Z,1.00
2022-08-26T14:13:39.754Z,1.00
2022-08-26T14:16:11.863Z,1.00
2022-08-26T14:18:42.534Z,1.00
2022-08-26T14:21:13.455Z,1.00
2022-08-26T14:23:41.368Z,1.00
2022-08-26T14:26:10.869Z,1.00
2022-08-26T14:28:42.685Z,1.00
2022-08-26T14:31:10.182Z,1.00
2022-08-26T14:33:38.207Z,1.00
2022-08-26T14:36:24.955Z,99.90
2022-08-26T14:38:51.859Z,99.90
2022-08-26T14:41:20.022Z,1.00
2022-08-26T14:43:57.742Z,1.00
2022-08-26T14:46:28.994Z,99.90
2022-08-26T14:49:01.615Z,99.90
2022-08-26T14:51:29.663Z,1.00
2022-08-26T14:54:14.615Z,1.00
2022-08-26T14:56:48.789Z,1.00
2022-08-26T14:59:22.217Z,1.00
2022-08-26T15:01:50.049Z,1.00
2022-08-26T15:04:17.664Z,1.00
2022-08-26T15:06:44.810Z,1.00
2022-08-26T15:09:12.574Z,1.00
2022-08-26T15:11:39.664Z,99.90
2022-08-26T15:14:06.499Z,99.90
2022-08-26T15:16:33.747Z,99.90
2022-08-26T15:19:04.001Z,99.90
2022-08-26T15:21:32.790Z,99.90
2022-08-26T15:24:01.048Z,99.90
2022-08-26T15:26:30.208Z,99.90
2022-08-26T15:29:00.849Z,99.90
2022-08-26T15:31:32.113Z,99.90
2022-08-26T15:34:00.605Z,99.90
2022-08-26T15:36:28.881Z,99.90
2022-08-26T15:38:56.755Z,99.90
2022-08-26T15:41:24.417Z,99.90
2022-08-26T15:43:51.642Z,99.90
2022-08-26T15:46:19.574Z,99.90
2022-08-26T15:48:46.580Z,99.90
2022-08-26T15:51:21.083Z,99.90
2022-08-26T15:53:50.098Z,99.90
2022-08-26T15:56:17.195Z,99.90
2022-08-26T15:58:44.938Z,99.90
2022-08-26T16:01:11.933Z,99.90
2022-08-26T16:03:39.598Z,99.90
2022-08-26T16:06:07.663Z,99.90
2022-08-26T16:08:36.795Z,99.90
2022-08-26T16:11:04.253Z,99.90
2022-08-26T16:13:39.520Z,99.90
2022-08-26T16:16:08.458Z,99.90
2022-08-26T16:18:35.611Z,99.90
2022-08-26T16:21:12.738Z,99.90
2022-08-26T16:23:43.271Z,99.90
2022-08-26T16:26:19.282Z,99.90
2022-08-26T16:28:46.037Z,99.90
2022-08-26T16:31:13.322Z,99.90
2022-08-26T16:33:40.665Z,99.90
2022-08-26T16:36:08.609Z,99.90
2022-08-26T16:38:37.520Z,99.90
2022-08-26T16:41:05.320Z,99.90
2022-08-26T16:43:32.335Z,99.90
2022-08-26T16:45:59.343Z,99.90
2022-08-26T16:48:27.059Z,99.90
2022-08-26T16:50:55.522Z,99.90
2022-08-26T16:53:23.349Z,99.90
2022-08-26T16:55:50.882Z,99.90
2022-08-26T16:58:18.832Z,99.90
2022-08-26T17:00:46.077Z,99.90
2022-08-26T17:03:13.206Z,99.90
2022-08-26T17:05:40.305Z,99.90
2022-08-26T17:08:08.621Z,99.90
2022-08-26T17:10:35.698Z,99.90
2022-08-26T17:13:02.581Z,99.90
2022-08-26T17:15:29.643Z,99.90
2022-08-26T17:17:56.805Z,99.90
2022-08-26T17:20:24.593Z,99.90
2022-08-26T17:22:53.859Z,99.90
2022-08-26T17:25:28.345Z,99.90
2022-08-26T17:30:24.537Z,99.90
2022-08-26T17:32:52.354Z,99.90
2022-08-26T17:35:19.627Z,99.90
2022-08-26T17:37:46.912Z,99.90
2022-08-26T17:40:18.593Z,99.90
2022-08-26T17:42:45.838Z,99.90
2022-08-26T17:45:13.244Z,99.90
2022-08-26T17:47:41.035Z,99.90
2022-08-26T17:50:11.339Z,99.90
2022-08-26T17:52:38.476Z,99.90
2022-08-26T17:55:06.856Z,99.90
2022-08-26T17:57:40.451Z,99.90
2022-08-26T18:00:12.396Z,99.90
2022-08-26T18:02:39.827Z,99.90
2022-08-26T18:05:08.262Z,99.90
2022-08-26T18:07:43.800Z,99.90
2022-08-26T18:10:13.488Z,99.90
2022-08-26T18:12:40.983Z,99.90
2022-08-26T18:15:08.855Z,99.90
2022-08-26T18:17:35.692Z,99.90
2022-08-26T18:20:02.640Z,99.90
2022-08-26T18:22:29.707Z,99.90
2022-08-26T18:24:58.814Z,99.90
2022-08-26T18:27:26.318Z,99.90
2022-08-26T18:29:53.059Z,99.90
2022-08-26T18:32:19.764Z,99.90
2022-08-26T18:34:46.463Z,99.90
2022-08-26T18:39:41.660Z,99.90
2022-08-26T18:42:08.861Z,99.90
2022-08-26T18:44:35.757Z,99.90
2022-08-26T18:47:02.624Z,99.90
2022-08-26T18:49:29.441Z,99.90
2022-08-26T18:51:56.238Z,99.90
2022-08-26T18:54:23.078Z,99.90
2022-08-26T18:56:49.965Z,99.90
2022-08-26T18:59:17.422Z,99.90
2022-08-26T19:01:45.218Z,99.90
2022-08-26T19:04:15.394Z,99.90
2022-08-26T19:06:43.440Z,99.90
2022-08-26T19:09:12.002Z,99.90
2022-08-26T19:11:42.968Z,99.90
2022-08-26T19:14:13.603Z,99.90
2022-08-26T19:16:43.004Z,99.90
2022-08-26T19:19:10.163Z,99.90
2022-08-26T19:21:37.648Z,99.90
2022-08-26T19:24:07.348Z,99.90
2022-08-26T19:26:34.406Z,99.90
2022-08-26T19:29:01.594Z,99.90
2022-08-26T19:31:28.435Z,99.90
2022-08-26T19:33:56.688Z,99.90
2022-08-26T19:36:25.374Z,99.90
2022-08-26T19:38:53.157Z,99.90
2022-08-26T19:41:25.467Z,99.90
2022-08-26T19:43:58.712Z,99.90
2022-08-26T19:46:26.671Z,99.90
2022-08-26T19:48:55.700Z,99.90
2022-08-26T19:51:25.980Z,99.90
2022-08-26T19:53:54.617Z,99.90
2022-08-26T19:56:22.102Z,99.90
2022-08-26T19:58:49.161Z,99.90
2022-08-26T20:01:17.025Z,99.90
2022-08-26T20:03:44.825Z,99.90
2022-08-26T20:06:13.379Z,99.90
2022-08-26T20:08:41.948Z,99.90
2022-08-26T20:11:15.916Z,99.90
2022-08-26T20:13:44.254Z,99.90
2022-08-26T20:16:12.054Z,99.90
2022-08-26T20:18:59.649Z,99.90
2022-08-26T20:21:28.024Z,99.90
2022-08-26T20:23:58.391Z,99.90
2022-08-26T20:26:28.072Z,99.90
2022-08-26T20:28:55.608Z,99.90
2022-08-26T20:31:22.601Z,99.90
2022-08-26T20:33:50.552Z,99.90
2022-08-26T20:36:20.265Z,99.90
2022-08-26T20:38:48.910Z,99.90
2022-08-26T20:41:16.986Z,99.90
2022-08-26T20:43:44.098Z,99.90
2022-08-26T20:46:17.933Z,99.90
2022-08-26T20:48:45.835Z,99.90
2022-08-26T20:51:12.650Z,99.90
2022-08-26T20:53:39.711Z,99.90
2022-08-26T20:56:08.943Z,99.90
2022-08-26T20:58:35.916Z,99.90
2022-08-26T21:01:07.553Z,99.90
2022-08-26T21:03:35.832Z,99.90
2022-08-26T21:06:03.576Z,99.90
2022-08-26T21:08:33.173Z,99.90
2022-08-26T21:11:00.664Z,99.90
2022-08-26T21:13:29.042Z,99.90
2022-08-26T21:16:02.891Z,99.90
2022-08-26T21:18:29.851Z,99.90
2022-08-26T21:20:56.582Z,99.90
2022-08-26T21:23:27.456Z,99.90
2022-08-26T21:25:55.953Z,99.90
2022-08-26T21:28:23.411Z,99.90
2022-08-26T21:30:50.176Z,99.90
2022-08-26T21:33:16.887Z,99.90
2022-08-26T21:35:51.936Z,99.90
2022-08-26T21:38:20.154Z,99.90
2022-08-26T21:40:59.220Z,99.90
2022-08-26T21:43:35.165Z,99.90
2022-08-26T21:46:14.356Z,99.90
2022-08-26T21:48:45.674Z,99.90
2022-08-26T21:51:17.018Z,99.90
2022-08-26T21:53:43.779Z,99.90
2022-08-26T21:56:16.347Z,99.90
2022-08-26T21:58:43.560Z,99.90
2022-08-26T22:01:16.432Z,99.90
2022-08-26T22:03:47.464Z,99.90
2022-08-26T22:06:17.429Z,99.90
2022-08-26T22:08:44.304Z,99.90
2022-08-26T22:11:11.649Z,99.90
2022-08-26T22:13:40.236Z,99.90
2022-08-26T22:16:07.511Z,99.90
2022-08-26T22:18:35.540Z,99.90
2022-08-26T22:21:08.862Z,99.90
2022-08-26T22:23:37.008Z,99.90
2022-08-26T22:26:05.914Z,99.90
2022-08-26T22:28:32.776Z,99.90
2022-08-26T22:31:00.141Z,99.90
2022-08-26T22:33:26.941Z,99.90
2022-08-26T22:35:54.296Z,99.90
2022-08-26T22:38:23.739Z,99.90
2022-08-26T22:40:56.116Z,99.90
2022-08-26T22:43:24.789Z,99.90
2022-08-26T22:45:52.968Z,99.90
2022-08-26T22:48:25.100Z,99.90
2022-08-26T22:50:58.242Z,99.90
2022-08-26T22:53:27.201Z,99.90
2022-08-26T22:55:54.406Z,99.90
2022-08-26T22:58:23.063Z,99.90
2022-08-26T23:00:57.725Z,99.90
2022-08-26T23:03:26.606Z,99.90
2022-08-26T23:05:53.873Z,99.90
2022-08-26T23:08:21.029Z,99.90
2022-08-26T23:10:48.381Z,99.90
2022-08-26T23:13:15.909Z,99.90
2022-08-26T23:15:44.744Z,99.90
2022-08-26T23:18:13.407Z,99.90
2022-08-26T23:20:40.994Z,99.90
2022-08-26T23:23:08.212Z,99.90
2022-08-26T23:25:35.372Z,99.90
2022-08-26T23:28:02.805Z,99.90
2022-08-26T23:30:31.757Z,99.90
2022-08-26T23:32:59.082Z,99.90
2022-08-26T23:35:26.177Z,99.90
2022-08-26T23:37:53.554Z,99.90
2022-08-26T23:40:32.823Z,99.90
2022-08-26T23:43:03.332Z,99.90
2022-08-26T23:45:31.850Z,99.90
2022-08-26T23:47:59.167Z,99.90
2022-08-26T23:50:48.437Z,99.90
2022-08-26T23:53:19.893Z,99.90
2022-08-26T23:55:48.315Z,99.90
2022-08-26T23:58:17.362Z,99.90
